Time;durP1;ratioP1;P1;durP2;ratioP2;P2;SDS_P1;SDS_P2;PMS_P1;PMS_P2;Temp;Humidity;BMP_temperature;BMP_pressure;BME280_temperature;BME280_humidity;BME280_pressure;Samples;Min_cycle;Max_cycle;Signal;HPM_P1;HPM_P2
2023/08/08 00:02:01;;;;;;;3.77;1.83;;;;;;;;;;5049787;28;20574;-74
2023/08/08 00:04:26;;;;;;;7.88;1.65;;;;;;;;;;5049890;28;20782;-74
2023/08/08 00:06:52;;;;;;;4.10;1.67;;;;;;;;;;5050062;28;20115;-74
2023/08/08 00:09:17;;;;;;;4.33;1.87;;;;;;;;;;5050132;28;20111;-74
2023/08/08 00:11:43;;;;;;;5.90;2.00;;;;;;;;;;5049683;28;20593;-74
2023/08/08 00:14:08;;;;;;;6.55;1.60;;;;;;;;;;5049619;28;20467;-74
2023/08/08 00:16:33;;;;;;;2.65;1.60;;;;;;;;;;5048952;28;20041;-74
2023/08/08 00:18:58;;;;;;;6.33;1.87;;;;;;;;;;5046978;28;20086;-74
2023/08/08 00:21:24;;;;;;;6.32;2.05;;;;;;;;;;5048679;28;20764;-74
2023/08/08 00:23:49;;;;;;;4.60;2.03;;;;;;;;;;5047234;28;20478;-74
2023/08/08 00:26:14;;;;;;;4.33;1.90;;;;;;;;;;5047925;28;20294;-74
2023/08/08 00:28:39;;;;;;;3.77;1.77;;;;;;;;;;5048421;28;20290;-74
2023/08/08 00:31:04;;;;;;;4.07;2.00;;;;;;;;;;5049610;28;20775;-74
2023/08/08 00:33:29;;;;;;;8.35;1.85;;;;;;;;;;5048051;28;20052;-74
2023/08/08 00:35:55;;;;;;;7.80;2.23;;;;;;;;;;5046580;28;20064;-74
2023/08/08 00:38:20;;;;;;;6.95;1.95;;;;;;;;;;5043500;28;20279;-74
2023/08/08 00:40:45;;;;;;;9.88;1.90;;;;;;;;;;5024187;28;20133;-74
2023/08/08 00:43:10;;;;;;;7.93;1.70;;;;;;;;;;5049218;28;20024;-74
2023/08/08 00:45:36;;;;;;;4.65;1.98;;;;;;;;;;5048680;28;20362;-74
2023/08/08 00:48:01;;;;;;;11.23;2.30;;;;;;;;;;5046180;28;20046;-74
2023/08/08 00:50:27;;;;;;;4.65;2.10;;;;;;;;;;5048919;28;20054;-74
2023/08/08 00:52:52;;;;;;;7.13;1.58;;;;;;;;;;5049566;28;20037;-74
2023/08/08 00:55:17;;;;;;;3.45;2.08;;;;;;;;;;5049700;28;20074;-74
2023/08/08 00:57:43;;;;;;;8.57;2.00;;;;;;;;;;5048720;28;20021;-74
2023/08/08 01:00:11;;;;;;;6.38;2.03;;;;;;;;;;5049637;28;20021;-74
2023/08/08 01:02:36;;;;;;;3.80;1.92;;;;;;;;;;5047467;28;20390;-74
2023/08/08 01:05:02;;;;;;;7.68;2.03;;;;;;;;;;5046807;28;20047;-74
2023/08/08 01:07:40;;;;;;;5.13;1.85;;;;;;;;;;5048053;28;20036;-74
2023/08/08 01:10:07;;;;;;;11.75;2.55;;;;;;;;;;5043703;28;20024;-74
2023/08/08 01:12:34;;;;;;;5.45;2.63;;;;;;;;;;5048206;28;20024;-74
2023/08/08 01:14:59;;;;;;;3.72;1.88;;;;;;;;;;5047987;28;20024;-74
2023/08/08 01:17:25;;;;;;;5.90;1.90;;;;;;;;;;5046236;28;20025;-74
2023/08/08 01:19:50;;;;;;;8.77;2.45;;;;;;;;;;5049057;28;20121;-74
2023/08/08 01:22:28;;;;;;;3.83;2.10;;;;;;;;;;5046400;28;20482;-74
2023/08/08 01:24:54;;;;;;;7.75;2.33;;;;;;;;;;5043187;28;20082;-74
2023/08/08 01:27:19;;;;;;;6.32;2.65;;;;;;;;;;5047685;28;20028;-74
2023/08/08 01:29:44;;;;;;;7.53;1.80;;;;;;;;;;5047660;28;20021;-74
2023/08/08 01:32:10;;;;;;;11.40;2.37;;;;;;;;;;5046474;28;20275;-74
2023/08/08 01:34:35;;;;;;;5.68;2.17;;;;;;;;;;5047142;28;20264;-74
2023/08/08 01:37:10;;;;;;;7.82;2.60;;;;;;;;;;5047116;28;20078;-74
2023/08/08 01:39:37;;;;;;;5.70;1.75;;;;;;;;;;5048331;28;20486;-74
2023/08/08 01:42:03;;;;;;;3.67;2.30;;;;;;;;;;5049198;28;20040;-74
2023/08/08 01:44:28;;;;;;;6.40;1.98;;;;;;;;;;5047846;28;20500;-74
2023/08/08 01:46:54;;;;;;;7.45;2.05;;;;;;;;;;5046792;28;20029;-74
2023/08/08 01:49:19;;;;;;;6.95;2.38;;;;;;;;;;5047768;28;20373;-74
2023/08/08 01:51:44;;;;;;;5.20;2.03;;;;;;;;;;5047495;28;20123;-74
2023/08/08 01:54:09;;;;;;;5.00;1.53;;;;;;;;;;5045406;28;20271;-74
2023/08/08 01:56:34;;;;;;;4.70;2.35;;;;;;;;;;5030090;28;20645;-74
2023/08/08 01:59:00;;;;;;;5.07;2.30;;;;;;;;;;5047249;28;20378;-74
2023/08/08 02:01:25;;;;;;;6.82;2.03;;;;;;;;;;5047226;28;20311;-74
2023/08/08 02:03:50;;;;;;;6.50;2.17;;;;;;;;;;5046463;28;20052;-74
2023/08/08 02:06:15;;;;;;;5.43;2.13;;;;;;;;;;5047200;28;21002;-74
2023/08/08 02:08:40;;;;;;;7.25;2.45;;;;;;;;;;5045195;28;20282;-74
2023/08/08 02:11:06;;;;;;;14.05;4.00;;;;;;;;;;5047836;28;20031;-74
2023/08/08 02:13:31;;;;;;;3.57;1.87;;;;;;;;;;5046200;28;20060;-74
2023/08/08 02:15:56;;;;;;;6.33;2.00;;;;;;;;;;5047534;28;20291;-74
2023/08/08 02:18:21;;;;;;;8.60;2.50;;;;;;;;;;5047360;28;20475;-74
2023/08/08 02:20:46;;;;;;;4.97;2.00;;;;;;;;;;5046930;28;20025;-74
2023/08/08 02:23:12;;;;;;;5.03;1.90;;;;;;;;;;5049066;28;20076;-74
2023/08/08 02:25:37;;;;;;;8.20;2.10;;;;;;;;;;5051051;28;20275;-74
2023/08/08 02:28:02;;;;;;;5.90;2.40;;;;;;;;;;5049034;28;20033;-74
2023/08/08 02:30:27;;;;;;;6.30;2.17;;;;;;;;;;5051044;28;20271;-74
2023/08/08 02:32:52;;;;;;;8.70;2.15;;;;;;;;;;5051673;28;20017;-74
2023/08/08 02:35:18;;;;;;;4.37;1.87;;;;;;;;;;5052466;28;20032;-74
2023/08/08 02:37:43;;;;;;;10.25;2.20;;;;;;;;;;5051399;28;20272;-74
2023/08/08 02:40:09;;;;;;;6.65;1.83;;;;;;;;;;5051578;28;20032;-74
2023/08/08 02:42:34;;;;;;;9.00;2.13;;;;;;;;;;5050585;28;20078;-74
2023/08/08 02:44:59;;;;;;;7.10;2.07;;;;;;;;;;5052384;28;20643;-74
2023/08/08 02:47:25;;;;;;;4.47;1.90;;;;;;;;;;5052705;28;20271;-74
2023/08/08 02:49:50;;;;;;;6.03;2.08;;;;;;;;;;5051269;28;20278;-74
2023/08/08 02:52:15;;;;;;;15.02;2.50;;;;;;;;;;5053655;28;20021;-74
2023/08/08 02:54:40;;;;;;;8.10;2.37;;;;;;;;;;5052370;28;20024;-74
2023/08/08 02:57:06;;;;;;;5.78;1.58;;;;;;;;;;5034389;28;20294;-74
2023/08/08 02:59:31;;;;;;;3.28;1.85;;;;;;;;;;5047533;28;20017;-73
2023/08/08 03:01:56;;;;;;;7.37;2.30;;;;;;;;;;5051006;28;20025;-74
2023/08/08 03:04:21;;;;;;;5.55;2.10;;;;;;;;;;5051981;28;20342;-74
2023/08/08 03:06:46;;;;;;;7.20;1.97;;;;;;;;;;5052687;28;20096;-74
2023/08/08 03:09:12;;;;;;;7.17;2.50;;;;;;;;;;5051329;28;20271;-74
2023/08/08 03:11:37;;;;;;;4.37;2.07;;;;;;;;;;5051292;28;20792;-74
2023/08/08 03:14:02;;;;;;;10.77;2.58;;;;;;;;;;5050816;28;20282;-74
2023/08/08 03:16:27;;;;;;;5.78;1.83;;;;;;;;;;5051055;28;20090;-73
2023/08/08 03:18:53;;;;;;;8.53;2.30;;;;;;;;;;5051027;28;20024;-73
2023/08/08 03:21:18;;;;;;;8.95;2.15;;;;;;;;;;5052820;28;20263;-73
2023/08/08 03:23:44;;;;;;;7.37;1.97;;;;;;;;;;5052360;28;20033;-73
2023/08/08 03:26:09;;;;;;;5.45;2.05;;;;;;;;;;5051543;28;20275;-74
2023/08/08 03:28:34;;;;;;;3.90;1.70;;;;;;;;;;5048585;28;20031;-74
2023/08/08 03:31:00;;;;;;;8.13;2.10;;;;;;;;;;5052173;28;20025;-74
2023/08/08 03:33:25;;;;;;;7.35;2.00;;;;;;;;;;5051930;28;20283;-74
2023/08/08 03:35:50;;;;;;;17.23;2.00;;;;;;;;;;5051947;28;20075;-74
2023/08/08 03:38:15;;;;;;;11.50;2.10;;;;;;;;;;5050866;28;20270;-74
2023/08/08 03:40:40;;;;;;;6.80;1.57;;;;;;;;;;5051875;28;20272;-74
2023/08/08 03:43:05;;;;;;;6.40;1.97;;;;;;;;;;5051957;28;20259;-74
2023/08/08 03:45:31;;;;;;;9.03;1.60;;;;;;;;;;5052054;28;20256;-74
2023/08/08 03:47:56;;;;;;;5.78;2.70;;;;;;;;;;5051355;28;20256;-74
2023/08/08 03:50:21;;;;;;;6.67;2.10;;;;;;;;;;5051008;28;20029;-74
2023/08/08 03:52:46;;;;;;;5.53;2.10;;;;;;;;;;5051747;28;20280;-74
2023/08/08 03:55:12;;;;;;;7.88;2.75;;;;;;;;;;5052228;28;20272;-73
2023/08/08 03:57:37;;;;;;;5.35;1.77;;;;;;;;;;5051708;28;20011;-73
2023/08/08 04:00:02;;;;;;;8.43;1.67;;;;;;;;;;5050681;28;20028;-74
2023/08/08 04:02:28;;;;;;;5.40;1.95;;;;;;;;;;5052795;28;20306;-74
2023/08/08 04:04:53;;;;;;;7.85;2.35;;;;;;;;;;5050241;28;20470;-74
2023/08/08 04:07:19;;;;;;;5.55;1.70;;;;;;;;;;5050860;28;20033;-74
2023/08/08 04:09:44;;;;;;;9.07;2.50;;;;;;;;;;5050722;28;20045;-74
2023/08/08 04:12:09;;;;;;;2.67;1.67;;;;;;;;;;5051213;28;20271;-73
2023/08/08 04:14:34;;;;;;;10.52;2.33;;;;;;;;;;5049941;28;20633;-74
2023/08/08 04:16:59;;;;;;;9.87;2.40;;;;;;;;;;5047738;28;20474;-74
2023/08/08 04:19:25;;;;;;;4.82;1.92;;;;;;;;;;5046614;28;20363;-74
2023/08/08 04:21:50;;;;;;;11.60;2.33;;;;;;;;;;5048628;28;20107;-74
2023/08/08 04:24:15;;;;;;;6.05;2.22;;;;;;;;;;5049109;28;20059;-74
2023/08/08 04:26:40;;;;;;;8.05;2.03;;;;;;;;;;5049818;28;20032;-74
2023/08/08 04:29:05;;;;;;;7.33;2.33;;;;;;;;;;5049469;28;20100;-74
2023/08/08 04:31:31;;;;;;;9.13;2.15;;;;;;;;;;5048975;28;20279;-74
2023/08/08 04:33:59;;;;;;;4.15;2.13;;;;;;;;;;5048817;28;20025;-74
2023/08/08 04:36:25;;;;;;;8.02;2.28;;;;;;;;;;5049479;28;20017;-74
2023/08/08 04:38:50;;;;;;;10.52;2.05;;;;;;;;;;5048274;28;20024;-74
2023/08/08 04:41:15;;;;;;;7.53;2.03;;;;;;;;;;5049758;28;20025;-74
2023/08/08 04:43:40;;;;;;;12.30;2.40;;;;;;;;;;5049601;28;20271;-74
2023/08/08 04:46:05;;;;;;;12.53;2.20;;;;;;;;;;5050634;28;20303;-74
2023/08/08 04:48:32;;;;;;;7.33;1.80;;;;;;;;;;5047197;28;20268;-74
2023/08/08 04:50:57;;;;;;;5.28;1.92;;;;;;;;;;5050596;28;20285;-73
2023/08/08 04:53:22;;;;;;;11.93;2.70;;;;;;;;;;5048949;28;20108;-73
2023/08/08 04:55:47;;;;;;;8.70;2.50;;;;;;;;;;5050612;28;20275;-74
2023/08/08 04:58:13;;;;;;;12.47;2.57;;;;;;;;;;5045831;28;20305;-73
2023/08/08 05:00:38;;;;;;;17.38;2.40;;;;;;;;;;5047912;28;20299;-73
2023/08/08 05:03:03;;;;;;;12.77;2.43;;;;;;;;;;5049142;28;20082;-73
2023/08/08 05:05:28;;;;;;;6.38;3.10;;;;;;;;;;5049147;28;20272;-73
2023/08/08 05:07:54;;;;;;;8.43;2.10;;;;;;;;;;5049607;28;20079;-74
2023/08/08 05:10:19;;;;;;;5.25;2.17;;;;;;;;;;5049917;28;20103;-73
2023/08/08 05:12:44;;;;;;;10.35;2.45;;;;;;;;;;5050073;28;20077;-73
2023/08/08 05:15:09;;;;;;;9.33;3.20;;;;;;;;;;5049122;28;20064;-73
2023/08/08 05:17:35;;;;;;;11.77;2.70;;;;;;;;;;5047537;28;20273;-73
2023/08/08 05:20:00;;;;;;;9.85;2.42;;;;;;;;;;5049395;28;20504;-73
2023/08/08 05:22:25;;;;;;;11.10;2.93;;;;;;;;;;5049639;28;20028;-73
2023/08/08 05:24:50;;;;;;;6.57;2.33;;;;;;;;;;5046567;28;20298;-73
2023/08/08 05:27:15;;;;;;;15.33;2.93;;;;;;;;;;5046745;28;20274;-73
2023/08/08 05:29:41;;;;;;;14.20;2.70;;;;;;;;;;5046998;28;20828;-73
2023/08/08 05:32:06;;;;;;;10.63;2.90;;;;;;;;;;5044748;28;20284;-74
2023/08/08 05:34:32;;;;;;;10.55;2.95;;;;;;;;;;5045651;28;20031;-74
2023/08/08 05:36:57;;;;;;;12.48;3.28;;;;;;;;;;5043643;28;20740;-73
2023/08/08 05:39:22;;;;;;;17.17;2.78;;;;;;;;;;5044597;28;20027;-74
2023/08/08 05:41:47;;;;;;;19.30;3.83;;;;;;;;;;5044818;28;20470;-74
2023/08/08 05:44:13;;;;;;;14.00;4.07;;;;;;;;;;5047346;28;20378;-73
2023/08/08 05:46:38;;;;;;;9.70;3.13;;;;;;;;;;5047078;28;20358;-73
2023/08/08 05:49:03;;;;;;;14.10;3.73;;;;;;;;;;5047171;28;20290;-74
2023/08/08 05:51:28;;;;;;;10.07;2.67;;;;;;;;;;5042821;28;20381;-73
2023/08/08 05:53:53;;;;;;;5.80;2.78;;;;;;;;;;5047024;28;20279;-73
2023/08/08 05:56:19;;;;;;;15.50;3.20;;;;;;;;;;5049535;28;20009;-73
2023/08/08 05:58:44;;;;;;;16.60;4.00;;;;;;;;;;5049558;28;20284;-74
2023/08/08 06:01:11;;;;;;;13.98;3.17;;;;;;;;;;5048747;28;20028;-74
2023/08/08 06:03:39;;;;;;;19.83;4.38;;;;;;;;;;5043575;28;20032;-73
2023/08/08 06:06:04;;;;;;;11.90;2.83;;;;;;;;;;5047450;28;20066;-73
2023/08/08 06:08:30;;;;;;;8.65;2.97;;;;;;;;;;5030919;28;20021;-73
2023/08/08 06:10:55;;;;;;;12.13;3.70;;;;;;;;;;5049691;28;20028;-74
2023/08/08 06:13:20;;;;;;;11.20;3.30;;;;;;;;;;5025373;28;20026;-73
2023/08/08 06:15:45;;;;;;;12.23;3.67;;;;;;;;;;5037165;28;20866;-74
2023/08/08 06:18:11;;;;;;;26.80;4.40;;;;;;;;;;5045843;28;20462;-74
2023/08/08 06:20:36;;;;;;;9.90;3.73;;;;;;;;;;5046622;28;20025;-74
2023/08/08 06:23:01;;;;;;;51.35;7.63;;;;;;;;;;5049253;28;20303;-74
2023/08/08 06:25:27;;;;;;;57.63;9.48;;;;;;;;;;5049065;28;20024;-74
2023/08/08 06:27:53;;;;;;;11.18;4.05;;;;;;;;;;5048025;28;20035;-74
2023/08/08 06:30:18;;;;;;;10.53;3.50;;;;;;;;;;5047330;28;20468;-74
2023/08/08 06:32:43;;;;;;;19.30;2.87;;;;;;;;;;5048832;28;20355;-74
2023/08/08 06:35:08;;;;;;;12.20;4.05;;;;;;;;;;5048268;28;20276;-74
2023/08/08 06:37:33;;;;;;;14.25;3.83;;;;;;;;;;5047825;28;20071;-74
2023/08/08 06:39:59;;;;;;;14.87;6.93;;;;;;;;;;5048980;28;20028;-74
2023/08/08 06:42:24;;;;;;;30.17;11.90;;;;;;;;;;5045710;28;20303;-74
2023/08/08 06:44:49;;;;;;;25.13;10.37;;;;;;;;;;5048108;28;20260;-74
2023/08/08 06:47:14;;;;;;;18.97;9.00;;;;;;;;;;5047486;28;20283;-74
2023/08/08 06:49:39;;;;;;;19.70;9.57;;;;;;;;;;5048024;28;20811;-74
2023/08/08 06:52:05;;;;;;;9.63;4.33;;;;;;;;;;5046525;28;20310;-74
2023/08/08 06:54:30;;;;;;;15.07;4.47;;;;;;;;;;5046172;28;20279;-74
2023/08/08 06:56:56;;;;;;;17.70;4.28;;;;;;;;;;5046261;28;20033;-74
2023/08/08 06:59:22;;;;;;;14.85;4.03;;;;;;;;;;5047258;28;20016;-74
2023/08/08 07:01:48;;;;;;;16.05;4.72;;;;;;;;;;5045927;28;20017;-73
2023/08/08 07:04:13;;;;;;;11.50;2.95;;;;;;;;;;5039212;28;20005;-74
2023/08/08 07:06:38;;;;;;;8.20;3.57;;;;;;;;;;5043406;28;20078;-74
2023/08/08 07:09:04;;;;;;;15.40;3.30;;;;;;;;;;5046135;28;20326;-74
2023/08/08 07:11:29;;;;;;;23.97;3.83;;;;;;;;;;5048188;28;20354;-74
2023/08/08 07:13:54;;;;;;;9.17;3.23;;;;;;;;;;5046682;28;20318;-74
2023/08/08 07:16:19;;;;;;;14.77;3.20;;;;;;;;;;5045430;28;20287;-74
2023/08/08 07:18:44;;;;;;;15.43;3.47;;;;;;;;;;5044712;28;20278;-74
2023/08/08 07:21:09;;;;;;;21.57;3.30;;;;;;;;;;5046077;28;20267;-74
2023/08/08 07:23:35;;;;;;;14.27;3.87;;;;;;;;;;5049740;28;20267;-74
2023/08/08 07:26:00;;;;;;;15.80;3.63;;;;;;;;;;5050696;28;20278;-74
2023/08/08 07:28:25;;;;;;;11.27;3.40;;;;;;;;;;5052043;28;20329;-74
2023/08/08 07:30:50;;;;;;;14.07;4.17;;;;;;;;;;5052002;28;20279;-74
2023/08/08 07:33:15;;;;;;;12.53;3.93;;;;;;;;;;5051081;28;20267;-74
2023/08/08 07:35:40;;;;;;;16.33;4.43;;;;;;;;;;5051799;28;20630;-74
2023/08/08 07:38:06;;;;;;;13.40;4.70;;;;;;;;;;5051762;28;20267;-74
2023/08/08 07:40:31;;;;;;;18.93;3.67;;;;;;;;;;5050529;28;20339;-74
2023/08/08 07:42:56;;;;;;;11.70;3.50;;;;;;;;;;5050896;28;20309;-74
2023/08/08 07:45:21;;;;;;;17.87;3.93;;;;;;;;;;5049145;28;20043;-74
2023/08/08 07:47:46;;;;;;;17.03;3.97;;;;;;;;;;5048729;28;20350;-74
2023/08/08 07:50:12;;;;;;;15.00;3.80;;;;;;;;;;5051441;28;20699;-74
2023/08/08 07:52:37;;;;;;;15.25;4.55;;;;;;;;;;5049962;28;20271;-74
2023/08/08 07:55:03;;;;;;;18.35;4.32;;;;;;;;;;5049917;28;20029;-74
2023/08/08 07:57:30;;;;;;;12.73;4.97;;;;;;;;;;5033161;28;20060;-74
2023/08/08 07:59:55;;;;;;;7.50;4.20;;;;;;;;;;5048815;28;20024;-74
2023/08/08 08:02:21;;;;;;;9.73;3.13;;;;;;;;;;5050763;28;20139;-74
2023/08/08 08:04:46;;;;;;;9.70;3.70;;;;;;;;;;5048918;28;20044;-74
2023/08/08 08:07:11;;;;;;;14.55;3.97;;;;;;;;;;5050872;28;20491;-74
2023/08/08 08:09:36;;;;;;;17.03;4.10;;;;;;;;;;5050121;28;20036;-74
2023/08/08 08:12:01;;;;;;;6.28;3.28;;;;;;;;;;5049969;28;20282;-74
2023/08/08 08:14:27;;;;;;;14.07;3.45;;;;;;;;;;5047812;28;20082;-74
2023/08/08 08:16:52;;;;;;;15.15;4.03;;;;;;;;;;5049325;28;20031;-74
2023/08/08 08:19:18;;;;;;;19.90;3.75;;;;;;;;;;5049738;28;20013;-74
2023/08/08 08:21:43;;;;;;;5.28;2.75;;;;;;;;;;5050951;28;20027;-74
2023/08/08 08:24:08;;;;;;;10.07;3.60;;;;;;;;;;5049468;28;20059;-74
2023/08/08 08:26:33;;;;;;;11.85;3.40;;;;;;;;;;5051907;28;20267;-74
2023/08/08 08:28:59;;;;;;;12.53;3.07;;;;;;;;;;5049726;28;20047;-74
2023/08/08 08:31:24;;;;;;;16.85;3.65;;;;;;;;;;5047210;28;20301;-74
2023/08/08 08:33:49;;;;;;;10.70;3.20;;;;;;;;;;5050518;28;20037;-74
2023/08/08 08:36:14;;;;;;;17.50;4.27;;;;;;;;;;5050406;28;20032;-74
2023/08/08 08:38:39;;;;;;;13.40;3.17;;;;;;;;;;5047179;28;20518;-74
2023/08/08 08:41:04;;;;;;;7.50;3.40;;;;;;;;;;5049506;28;20055;-74
2023/08/08 08:43:30;;;;;;;10.57;3.57;;;;;;;;;;5045988;28;20276;-74
2023/08/08 08:45:57;;;;;;;14.52;4.10;;;;;;;;;;5045637;28;20294;-74
2023/08/08 08:48:22;;;;;;;17.00;5.22;;;;;;;;;;5050048;28;20511;-73
2023/08/08 08:50:48;;;;;;;14.07;5.38;;;;;;;;;;5049754;28;20024;-73
2023/08/08 08:53:14;;;;;;;11.25;5.47;;;;;;;;;;5045123;28;20029;-73
2023/08/08 08:55:39;;;;;;;15.27;5.60;;;;;;;;;;5048402;28;20550;-73
2023/08/08 08:58:05;;;;;;;14.15;5.70;;;;;;;;;;5048305;28;20076;-74
2023/08/08 09:00:30;;;;;;;17.83;6.13;;;;;;;;;;5048486;28;20100;-73
2023/08/08 09:02:56;;;;;;;20.92;7.32;;;;;;;;;;5050999;28;20017;-73
2023/08/08 09:05:21;;;;;;;15.32;7.20;;;;;;;;;;5044527;28;20389;-73
2023/08/08 09:07:47;;;;;;;13.60;5.68;;;;;;;;;;5044541;28;21866;-73
2023/08/08 09:10:13;;;;;;;18.27;6.38;;;;;;;;;;5046159;28;20107;-73
2023/08/08 09:12:38;;;;;;;15.60;6.78;;;;;;;;;;5049399;28;20044;-73
2023/08/08 09:15:04;;;;;;;22.30;8.17;;;;;;;;;;5046872;28;20021;-73
2023/08/08 09:17:30;;;;;;;16.48;5.90;;;;;;;;;;5046219;28;20921;-73
2023/08/08 09:19:55;;;;;;;18.95;5.82;;;;;;;;;;5047830;28;20025;-73
2023/08/08 09:22:21;;;;;;;14.30;6.32;;;;;;;;;;5049763;28;20021;-73
2023/08/08 09:24:46;;;;;;;11.73;6.18;;;;;;;;;;5047571;28;20115;-73
2023/08/08 09:27:12;;;;;;;20.77;7.32;;;;;;;;;;5048530;28;20088;-73
2023/08/08 09:29:37;;;;;;;15.23;5.47;;;;;;;;;;5044923;28;20013;-73
2023/08/08 09:32:04;;;;;;;11.93;5.32;;;;;;;;;;5040539;28;20035;-73
2023/08/08 09:34:29;;;;;;;16.60;7.25;;;;;;;;;;5038979;28;20032;-73
2023/08/08 09:36:54;;;;;;;13.93;6.10;;;;;;;;;;5045757;28;20021;-73
2023/08/08 09:39:19;;;;;;;19.50;6.75;;;;;;;;;;5044494;28;20025;-73
2023/08/08 09:41:46;;;;;;;28.75;7.32;;;;;;;;;;5046230;28;20024;-73
2023/08/08 09:44:11;;;;;;;18.20;6.82;;;;;;;;;;5047179;28;21382;-73
2023/08/08 09:46:37;;;;;;;22.42;6.68;;;;;;;;;;5043965;28;20021;-73
2023/08/08 09:49:02;;;;;;;12.18;6.05;;;;;;;;;;5038931;28;20021;-73
2023/08/08 09:51:28;;;;;;;25.05;8.20;;;;;;;;;;5050023;28;20017;-73
2023/08/08 09:53:54;;;;;;;20.90;6.78;;;;;;;;;;5049290;28;20028;-73
2023/08/08 09:56:19;;;;;;;22.83;6.47;;;;;;;;;;5048989;28;20085;-73
2023/08/08 09:58:46;;;;;;;18.02;6.95;;;;;;;;;;5050142;28;20108;-73
2023/08/08 10:01:12;;;;;;;18.95;6.40;;;;;;;;;;5047179;28;20108;-73
2023/08/08 10:03:38;;;;;;;18.90;6.78;;;;;;;;;;5046964;28;20424;-73
2023/08/08 10:06:03;;;;;;;13.98;6.15;;;;;;;;;;5046868;28;20112;-73
2023/08/08 10:08:29;;;;;;;30.23;7.10;;;;;;;;;;5049900;28;20025;-73
2023/08/08 10:10:55;;;;;;;24.52;6.38;;;;;;;;;;5050394;28;20100;-73
2023/08/08 10:13:24;;;;;;;19.55;5.95;;;;;;;;;;5049110;28;20063;-73
2023/08/08 10:15:51;;;;;;;13.03;6.17;;;;;;;;;;5045434;28;20028;-73
2023/08/08 10:18:16;;;;;;;16.33;6.07;;;;;;;;;;5047084;28;20025;-73
2023/08/08 10:20:42;;;;;;;15.95;5.53;;;;;;;;;;5049035;28;20462;-73
2023/08/08 10:23:08;;;;;;;14.13;5.20;;;;;;;;;;5049180;28;20032;-73
2023/08/08 10:25:33;;;;;;;13.17;5.17;;;;;;;;;;5047984;28;20067;-73
2023/08/08 10:28:05;;;;;;;40.47;8.77;;;;;;;;;;5048729;28;20303;-73
2023/08/08 10:30:41;;;;;;;13.07;5.50;;;;;;;;;;5047819;28;20278;-73
2023/08/08 10:33:14;;;;;;;19.60;4.70;;;;;;;;;;5049005;28;20024;-73
2023/08/08 10:35:40;;;;;;;21.05;5.15;;;;;;;;;;5048401;28;20025;-73
2023/08/08 10:38:08;;;;;;;10.63;4.53;;;;;;;;;;5048215;28;20013;-73
2023/08/08 10:40:33;;;;;;;15.30;4.65;;;;;;;;;;5048607;28;20274;-73
2023/08/08 10:42:58;;;;;;;11.55;3.92;;;;;;;;;;5048994;28;20017;-73
2023/08/08 10:45:28;;;;;;;8.55;3.53;;;;;;;;;;5046714;28;20025;-73
2023/08/08 10:47:54;;;;;;;16.02;3.38;;;;;;;;;;5050125;28;20028;-73
2023/08/08 10:50:23;;;;;;;14.48;3.00;;;;;;;;;;5051626;28;20029;-73
2023/08/08 10:52:54;;;;;;;10.55;3.45;;;;;;;;;;5050045;28;20033;-73
2023/08/08 10:55:19;;;;;;;8.20;3.42;;;;;;;;;;5047049;28;20017;-73
2023/08/08 10:57:52;;;;;;;7.43;2.95;;;;;;;;;;5051857;28;20017;-73
2023/08/08 11:00:18;;;;;;;8.95;3.92;;;;;;;;;;5049565;28;20013;-73
2023/08/08 11:02:44;;;;;;;10.57;3.40;;;;;;;;;;5052616;28;20024;-73
2023/08/08 11:05:09;;;;;;;8.95;3.20;;;;;;;;;;5047129;28;20009;-73
2023/08/08 11:07:36;;;;;;;15.60;3.78;;;;;;;;;;5047138;28;20475;-73
2023/08/08 11:10:01;;;;;;;13.95;3.22;;;;;;;;;;5053411;28;20025;-73
2023/08/08 11:12:26;;;;;;;15.60;3.87;;;;;;;;;;5052038;28;20032;-73
2023/08/08 11:14:51;;;;;;;6.28;2.53;;;;;;;;;;5050453;28;20318;-73
2023/08/08 11:17:17;;;;;;;13.83;3.07;;;;;;;;;;5051634;28;20012;-73
2023/08/08 11:19:43;;;;;;;8.43;2.70;;;;;;;;;;5051813;28;20305;-73
2023/08/08 11:22:14;;;;;;;21.00;4.03;;;;;;;;;;5047957;28;20040;-73
2023/08/08 11:24:39;;;;;;;19.95;4.80;;;;;;;;;;5049382;28;20303;-73
2023/08/08 11:27:04;;;;;;;14.33;2.97;;;;;;;;;;5047595;28;20053;-73
2023/08/08 11:29:30;;;;;;;12.80;3.00;;;;;;;;;;5049654;28;20289;-73
2023/08/08 11:31:56;;;;;;;7.82;2.78;;;;;;;;;;5053029;28;20040;-73
2023/08/08 11:34:22;;;;;;;13.43;3.17;;;;;;;;;;5054209;28;20031;-73
2023/08/08 11:36:48;;;;;;;12.23;2.73;;;;;;;;;;5047162;28;20033;-73
2023/08/08 11:39:13;;;;;;;13.18;4.75;;;;;;;;;;5048869;28;20302;-73
2023/08/08 11:41:40;;;;;;;13.38;2.53;;;;;;;;;;5044390;28;20044;-73
2023/08/08 11:44:07;;;;;;;8.13;2.30;;;;;;;;;;5048360;28;20017;-73
2023/08/08 11:46:32;;;;;;;10.60;3.22;;;;;;;;;;5051221;28;20470;-73
2023/08/08 11:49:04;;;;;;;14.35;3.03;;;;;;;;;;5050258;28;20052;-73
2023/08/08 11:51:29;;;;;;;9.45;3.10;;;;;;;;;;5049395;28;20028;-73
2023/08/08 11:53:55;;;;;;;12.18;3.08;;;;;;;;;;5049406;28;20031;-73
2023/08/08 11:56:20;;;;;;;9.10;2.60;;;;;;;;;;5046938;28;20023;-72
2023/08/08 11:58:47;;;;;;;10.35;2.75;;;;;;;;;;5049149;28;20029;-72
2023/08/08 12:01:14;;;;;;;11.60;3.53;;;;;;;;;;5048777;28;20456;-72
2023/08/08 12:03:39;;;;;;;8.48;2.60;;;;;;;;;;5049369;28;20013;-72
2023/08/08 12:06:11;;;;;;;7.68;2.83;;;;;;;;;;5049849;28;20044;-72
2023/08/08 12:08:37;;;;;;;12.48;2.20;;;;;;;;;;5049362;28;20025;-72
2023/08/08 12:11:04;;;;;;;7.72;2.28;;;;;;;;;;5052176;28;20094;-73
2023/08/08 12:13:30;;;;;;;8.45;2.15;;;;;;;;;;5051988;28;20444;-73
2023/08/08 12:15:56;;;;;;;9.75;2.20;;;;;;;;;;5050910;28;20021;-73
2023/08/08 12:18:21;;;;;;;9.57;2.30;;;;;;;;;;5050809;28;20525;-73
2023/08/08 12:20:47;;;;;;;7.72;2.40;;;;;;;;;;5049737;28;20029;-73
2023/08/08 12:23:12;;;;;;;6.07;2.07;;;;;;;;;;5049732;28;20493;-73
2023/08/08 12:25:37;;;;;;;11.48;1.77;;;;;;;;;;5047488;28;20029;-73
2023/08/08 12:28:03;;;;;;;8.63;2.70;;;;;;;;;;5050110;28;20036;-73
2023/08/08 12:30:28;;;;;;;6.97;1.80;;;;;;;;;;5050658;28;20028;-73
2023/08/08 12:32:53;;;;;;;9.30;1.98;;;;;;;;;;5049245;28;20502;-73
2023/08/08 12:35:20;;;;;;;7.65;2.38;;;;;;;;;;5048504;28;20035;-73
2023/08/08 12:37:45;;;;;;;10.13;2.22;;;;;;;;;;5049460;28;20017;-73
2023/08/08 12:40:11;;;;;;;10.48;2.10;;;;;;;;;;5050864;28;20020;-73
2023/08/08 12:42:36;;;;;;;10.00;2.38;;;;;;;;;;5051179;28;20032;-73
2023/08/08 12:45:01;;;;;;;10.00;3.05;;;;;;;;;;5050272;28;20096;-72
2023/08/08 12:47:26;;;;;;;8.47;2.73;;;;;;;;;;5051106;28;20097;-73
2023/08/08 12:49:51;;;;;;;8.63;3.25;;;;;;;;;;5029951;28;20313;-73
2023/08/08 12:52:17;;;;;;;6.50;2.57;;;;;;;;;;5050142;28;20060;-72
2023/08/08 12:54:42;;;;;;;13.67;3.47;;;;;;;;;;5049518;28;20324;-73
2023/08/08 12:57:08;;;;;;;12.00;3.13;;;;;;;;;;5046899;28;20622;-72
2023/08/08 12:59:33;;;;;;;5.05;3.30;;;;;;;;;;5049052;28;20017;-72
2023/08/08 13:01:59;;;;;;;6.80;3.43;;;;;;;;;;5048317;28;20029;-72
2023/08/08 13:04:25;;;;;;;15.50;3.60;;;;;;;;;;5046825;28;20756;-72
2023/08/08 13:06:50;;;;;;;12.95;3.67;;;;;;;;;;5049944;28;20731;-72
2023/08/08 13:09:15;;;;;;;9.63;3.60;;;;;;;;;;5048240;28;20078;-73
2023/08/08 13:11:41;;;;;;;8.23;3.95;;;;;;;;;;5049153;28;20040;-73
2023/08/08 13:14:06;;;;;;;11.43;3.05;;;;;;;;;;5047091;28;20089;-73
2023/08/08 13:16:31;;;;;;;10.60;3.17;;;;;;;;;;5046790;28;20471;-73
2023/08/08 13:18:56;;;;;;;15.20;4.63;;;;;;;;;;5049831;28;20108;-73
2023/08/08 13:21:21;;;;;;;6.90;3.87;;;;;;;;;;5050992;28;20267;-73
2023/08/08 13:23:47;;;;;;;15.50;4.27;;;;;;;;;;5049108;28;20779;-73
2023/08/08 13:26:12;;;;;;;14.00;4.27;;;;;;;;;;5047406;28;20377;-73
2023/08/08 13:28:38;;;;;;;11.73;3.70;;;;;;;;;;5047001;28;20345;-73
2023/08/08 13:31:04;;;;;;;10.93;5.07;;;;;;;;;;5049463;28;20636;-73
2023/08/08 13:33:29;;;;;;;11.40;4.70;;;;;;;;;;5050341;28;20021;-73
2023/08/08 13:35:54;;;;;;;12.83;4.30;;;;;;;;;;5049076;28;20033;-73
2023/08/08 13:38:19;;;;;;;11.23;3.67;;;;;;;;;;5047100;28;20290;-73
2023/08/08 13:40:44;;;;;;;9.65;3.22;;;;;;;;;;5045725;28;20019;-72
2023/08/08 13:43:10;;;;;;;9.70;3.55;;;;;;;;;;5029455;28;20021;-72
2023/08/08 13:45:35;;;;;;;8.03;3.77;;;;;;;;;;5047877;28;20071;-72
2023/08/08 13:48:00;;;;;;;14.38;3.92;;;;;;;;;;5049231;28;20307;-73
2023/08/08 13:50:25;;;;;;;6.80;3.08;;;;;;;;;;5048731;28;20033;-73
2023/08/08 13:52:52;;;;;;;9.60;3.72;;;;;;;;;;5030230;28;20087;-73
2023/08/08 13:55:17;;;;;;;17.38;4.22;;;;;;;;;;5048970;28;20074;-73
2023/08/08 13:57:42;;;;;;;10.03;3.30;;;;;;;;;;5046653;28;20024;-73
2023/08/08 14:00:10;;;;;;;13.00;3.57;;;;;;;;;;5049423;28;20509;-72
2023/08/08 14:02:36;;;;;;;16.30;3.70;;;;;;;;;;5046387;28;20381;-72
2023/08/08 14:05:01;;;;;;;15.60;4.60;;;;;;;;;;5047126;28;20461;-72
2023/08/08 14:07:26;;;;;;;10.80;3.75;;;;;;;;;;5045476;28;20020;-72
2023/08/08 14:09:51;;;;;;;6.35;2.63;;;;;;;;;;5047321;28;20027;-72
2023/08/08 14:12:16;;;;;;;9.63;2.23;;;;;;;;;;5048196;28;20025;-72
2023/08/08 14:14:42;;;;;;;9.80;2.33;;;;;;;;;;5048184;28;20784;-72
2023/08/08 14:17:07;;;;;;;12.45;2.53;;;;;;;;;;5048342;28;20370;-72
2023/08/08 14:19:32;;;;;;;8.50;2.00;;;;;;;;;;5044788;28;20576;-72
2023/08/08 14:21:57;;;;;;;2.67;1.00;;;;;;;;;;5047720;28;20385;-72
2023/08/08 14:24:23;;;;;;;9.83;1.80;;;;;;;;;;5047174;28;20025;-72
2023/08/08 14:26:48;;;;;;;7.82;1.85;;;;;;;;;;5053750;28;20059;-72